createdAt,value
2022-11-20T00:01:39.170Z,97.19
2022-11-20T00:04:07.538Z,97.60
2022-11-20T00:06:37.259Z,97.58
2022-11-20T00:09:06.332Z,97.41
2022-11-20T00:11:34.997Z,96.86
2022-11-20T00:14:04.514Z,97.36
2022-11-20T00:16:34.551Z,96.89
2022-11-20T00:19:03.329Z,96.87
2022-11-20T00:21:32.274Z,97.06
2022-11-20T00:24:02.126Z,97.09
2022-11-20T00:26:31.322Z,97.27
2022-11-20T00:29:02.307Z,96.94
2022-11-20T00:31:31.688Z,96.90
2022-11-20T00:34:00.004Z,97.22
2022-11-20T00:36:30.566Z,96.95
2022-11-20T00:39:01.382Z,97.32
2022-11-20T00:41:31.110Z,96.86
2022-11-20T00:43:59.475Z,96.45
2022-11-20T00:46:30.129Z,96.85
2022-11-20T00:48:59.499Z,97.04
2022-11-20T00:51:29.451Z,97.16
2022-11-20T00:53:59.049Z,96.29
2022-11-20T00:56:28.878Z,96.06
2022-11-20T00:58:57.746Z,96.20
2022-11-20T01:01:30.127Z,96.66
2022-11-20T01:04:01.874Z,96.27
2022-11-20T01:06:32.768Z,95.78
2022-11-20T01:09:04.015Z,96.06
2022-11-20T01:11:36.352Z,95.88
2022-11-20T01:14:08.387Z,96.00
2022-11-20T01:16:39.639Z,96.45
2022-11-20T01:19:15.964Z,96.81
2022-11-20T01:21:47.916Z,91.30
2022-11-20T01:24:20.477Z,97.42
2022-11-20T01:26:52.907Z,97.20
2022-11-20T01:29:24.086Z,94.79
2022-11-20T01:31:53.740Z,97.37
2022-11-20T01:34:24.355Z,95.77
2022-11-20T01:36:54.820Z,96.39
2022-11-20T01:39:25.557Z,96.40
2022-11-20T01:42:14.683Z,95.89
2022-11-20T01:44:56.969Z,96.39
2022-11-20T01:47:35.563Z,96.16
2022-11-20T01:50:11.484Z,95.92
2022-11-20T01:52:47.880Z,96.89
2022-11-20T01:55:21.262Z,96.59
2022-11-20T01:57:51.563Z,96.20
2022-11-20T02:00:21.925Z,97.06
2022-11-20T02:02:57.215Z,97.19
2022-11-20T02:05:33.427Z,96.54
2022-11-20T02:08:02.128Z,96.42
2022-11-20T02:10:31.602Z,96.31
2022-11-20T02:13:18.926Z,96.63
2022-11-20T02:15:47.631Z,96.54
2022-11-20T02:18:19.598Z,96.73
2022-11-20T02:20:51.311Z,97.17
2022-11-20T02:23:27.488Z,96.61
2022-11-20T02:25:59.838Z,96.46
2022-11-20T02:28:28.539Z,96.39
2022-11-20T02:30:56.851Z,97.03
2022-11-20T02:33:25.267Z,96.81
2022-11-20T02:35:53.734Z,97.48
2022-11-20T02:38:22.600Z,97.91
2022-11-20T02:40:55.292Z,97.35
2022-11-20T02:43:25.773Z,97.46
2022-11-20T02:45:54.073Z,97.30
2022-11-20T02:48:25.023Z,97.29
2022-11-20T02:50:53.621Z,97.53
2022-11-20T02:53:21.991Z,98.23
2022-11-20T02:55:50.332Z,95.73
2022-11-20T02:58:18.702Z,97.85
2022-11-20T03:00:48.396Z,97.97
2022-11-20T03:03:16.798Z,98.30
2022-11-20T03:05:45.130Z,96.91
2022-11-20T03:08:13.472Z,97.66
2022-11-20T03:10:41.795Z,93.04
2022-11-20T03:13:10.407Z,96.29
2022-11-20T03:15:39.113Z,96.81
2022-11-20T03:18:08.938Z,98.61
2022-11-20T03:20:37.406Z,98.16
2022-11-20T03:23:05.794Z,98.00
2022-11-20T03:25:34.175Z,98.33
2022-11-20T03:28:02.514Z,98.27
2022-11-20T03:30:31.144Z,97.63
2022-11-20T03:32:59.527Z,97.64
2022-11-20T03:35:29.274Z,97.39
2022-11-20T03:37:57.621Z,97.05
2022-11-20T03:40:26.025Z,97.38
2022-11-20T03:42:54.357Z,97.83
2022-11-20T03:45:22.727Z,98.01
2022-11-20T03:47:51.285Z,97.42
2022-11-20T03:50:19.807Z,98.01
2022-11-20T03:52:49.525Z,98.29
2022-11-20T03:55:18.027Z,97.23
2022-11-20T03:57:46.346Z,97.74
2022-11-20T04:00:16.232Z,98.04
2022-11-20T04:02:44.561Z,97.81
2022-11-20T04:05:12.923Z,97.97
2022-11-20T04:07:41.323Z,98.08
2022-11-20T04:10:11.407Z,97.90
2022-11-20T04:12:39.713Z,97.65
2022-11-20T04:15:09.131Z,97.29
2022-11-20T04:17:37.500Z,98.20
2022-11-20T04:20:07.263Z,97.60
2022-11-20T04:22:35.547Z,97.70
2022-11-20T04:25:04.071Z,98.33
2022-11-20T04:27:34.489Z,96.94
2022-11-20T04:30:02.927Z,98.40
2022-11-20T04:32:31.259Z,98.92
2022-11-20T04:34:59.650Z,98.94
2022-11-20T04:37:27.963Z,98.70
2022-11-20T04:39:56.327Z,98.70
2022-11-20T04:42:30.646Z,98.35
2022-11-20T04:45:00.368Z,98.98
2022-11-20T04:47:28.744Z,98.65
2022-11-20T04:49:57.173Z,99.25
2022-11-20T04:52:25.586Z,99.31
2022-11-20T04:54:54.863Z,99.23
2022-11-20T04:57:23.235Z,98.84
2022-11-20T04:59:51.620Z,98.15
2022-11-20T05:02:22.317Z,98.41
2022-11-20T05:04:50.891Z,99.12
2022-11-20T05:07:19.714Z,99.29
2022-11-20T05:09:48.087Z,98.98
2022-11-20T05:12:16.484Z,98.91
2022-11-20T05:14:44.792Z,98.96
2022-11-20T05:17:13.878Z,98.36
2022-11-20T05:19:43.592Z,98.98
2022-11-20T05:22:11.971Z,99.60
2022-11-20T05:24:40.310Z,99.08
2022-11-20T05:27:08.671Z,99.83
2022-11-20T05:29:37.011Z,99.43
2022-11-20T05:32:06.853Z,99.40
2022-11-20T05:34:35.312Z,99.10
2022-11-20T05:37:05.196Z,99.18
2022-11-20T05:39:33.591Z,99.02
2022-11-20T05:42:19.608Z,99.65
2022-11-20T05:44:47.916Z,99.49
2022-11-20T05:47:16.287Z,99.28
2022-11-20T05:49:44.609Z,99.29
2022-11-20T05:52:14.350Z,99.26
2022-11-20T05:54:42.676Z,99.41
2022-11-20T05:57:11.024Z,99.04
2022-11-20T05:59:39.464Z,98.41
2022-11-20T06:02:07.897Z,99.19
2022-11-20T06:04:36.241Z,99.35
2022-11-20T06:07:04.640Z,99.55
2022-11-20T06:09:34.672Z,99.28
2022-11-20T06:12:03.155Z,99.29
2022-11-20T06:14:31.476Z,99.12
2022-11-20T06:16:59.856Z,99.49
2022-11-20T06:19:28.165Z,99.86
2022-11-20T06:21:56.591Z,100.00
2022-11-20T06:24:26.448Z,100.00
2022-11-20T06:26:56.203Z,99.97
2022-11-20T06:29:26.786Z,99.57
2022-11-20T06:31:57.137Z,100.00
2022-11-20T06:34:25.455Z,100.00
2022-11-20T06:36:53.805Z,100.00
2022-11-20T06:39:22.426Z,100.00
2022-11-20T06:41:55.751Z,100.00
2022-11-20T06:44:28.290Z,100.00
2022-11-20T06:46:56.687Z,100.00
2022-11-20T06:49:25.227Z,100.00
2022-11-20T06:51:53.633Z,100.00
2022-11-20T06:54:21.948Z,100.00
2022-11-20T06:56:50.526Z,100.00
2022-11-20T06:59:19.034Z,100.00
2022-11-20T07:01:49.001Z,100.00
2022-11-20T07:04:17.326Z,100.00
2022-11-20T07:06:45.681Z,100.00
2022-11-20T07:09:14.128Z,100.00
2022-11-20T07:11:42.529Z,100.00
2022-11-20T07:14:10.835Z,100.00
2022-11-20T07:16:39.223Z,100.00
2022-11-20T07:19:08.942Z,100.00
2022-11-20T07:21:37.745Z,100.00
2022-11-20T07:24:06.503Z,100.00
2022-11-20T07:26:34.873Z,100.00
2022-11-20T07:29:03.209Z,100.00
2022-11-20T07:31:31.610Z,100.00
2022-11-20T07:33:59.920Z,100.00
2022-11-20T07:36:29.614Z,100.00
2022-11-20T07:38:57.967Z,100.00
2022-11-20T07:41:26.300Z,100.00
2022-11-20T07:43:54.671Z,100.00
2022-11-20T07:46:22.993Z,100.00
2022-11-20T07:48:51.354Z,100.00
2022-11-20T07:51:19.678Z,100.00
2022-11-20T07:53:49.422Z,100.00
2022-11-20T07:56:17.783Z,100.00
2022-11-20T07:58:46.134Z,100.00
2022-11-20T08:01:14.508Z,100.00
2022-11-20T08:03:42.923Z,100.00
2022-11-20T08:06:11.385Z,100.00
2022-11-20T08:08:42.928Z,100.00
2022-11-20T08:11:30.292Z,100.00
2022-11-20T08:14:16.905Z,100.00
2022-11-20T08:16:47.724Z,100.00
2022-11-20T08:19:17.278Z,100.00
2022-11-20T08:21:46.368Z,100.00
2022-11-20T08:24:14.883Z,100.00
2022-11-20T08:26:44.573Z,100.00
2022-11-20T08:29:13.416Z,100.00
2022-11-20T08:31:41.825Z,100.00
2022-11-20T08:34:17.663Z,100.00
2022-11-20T08:36:47.589Z,100.00
2022-11-20T08:39:16.602Z,100.00
2022-11-20T08:41:46.350Z,100.00
2022-11-20T08:44:14.708Z,100.00
2022-11-20T08:46:44.937Z,97.40
2022-11-20T08:49:14.950Z,100.00
2022-11-20T08:51:44.300Z,100.00
2022-11-20T08:54:12.675Z,100.00
2022-11-20T08:56:41.057Z,100.00
2022-11-20T08:59:26.871Z,100.00
2022-11-20T09:01:59.508Z,99.95
2022-11-20T09:04:27.904Z,100.00
2022-11-20T09:06:56.274Z,100.00
2022-11-20T09:09:24.805Z,100.00
2022-11-20T09:11:53.294Z,100.00
2022-11-20T09:14:25.792Z,100.00
2022-11-20T09:16:54.126Z,99.15
2022-11-20T09:19:37.773Z,100.00
2022-11-20T09:22:06.131Z,100.00
2022-11-20T09:24:34.591Z,96.84
2022-11-20T09:27:05.949Z,99.63
2022-11-20T09:29:35.789Z,100.00
2022-11-20T09:32:04.136Z,98.20
2022-11-20T09:34:32.636Z,100.00
2022-11-20T09:37:04.477Z,100.00
2022-11-20T09:39:35.501Z,100.00
2022-11-20T09:42:29.825Z,100.00
2022-11-20T09:45:24.063Z,100.00
2022-11-20T09:48:23.666Z,100.00
2022-11-20T09:50:59.886Z,100.00
2022-11-20T09:53:46.842Z,100.00
2022-11-20T09:56:23.376Z,100.00
2022-11-20T09:58:54.267Z,100.00
2022-11-20T10:01:28.970Z,97.82
2022-11-20T10:04:03.843Z,100.00
2022-11-20T10:06:34.843Z,100.00
2022-11-20T10:09:18.202Z,100.00
2022-11-20T10:12:01.563Z,100.00
2022-11-20T10:14:43.830Z,100.00
2022-11-20T10:17:22.938Z,100.00
2022-11-20T10:20:17.115Z,100.00
2022-11-20T10:22:57.014Z,100.00
2022-11-20T10:25:41.790Z,100.00
2022-11-20T10:28:25.383Z,100.00
2022-11-20T10:31:02.108Z,100.00
2022-11-20T10:33:57.157Z,100.00
2022-11-20T10:36:31.223Z,100.00
2022-11-20T10:39:06.074Z,99.75
2022-11-20T10:41:42.191Z,100.00
2022-11-20T10:44:37.020Z,100.00
2022-11-20T10:47:07.078Z,100.00
2022-11-20T10:49:37.410Z,100.00
2022-11-20T10:52:15.313Z,100.00
2022-11-20T10:54:52.396Z,100.00
2022-11-20T10:57:34.449Z,100.00
2022-11-20T11:00:08.051Z,100.00
2022-11-20T11:02:41.775Z,100.00
2022-11-20T11:05:22.679Z,100.00
2022-11-20T11:07:55.086Z,99.02
2022-11-20T11:10:33.988Z,100.00
2022-11-20T11:13:02.347Z,100.00
2022-11-20T11:15:38.835Z,100.00
2022-11-20T11:18:10.752Z,100.00
2022-11-20T11:20:41.012Z,100.00
2022-11-20T11:23:36.201Z,100.00
2022-11-20T11:26:07.917Z,100.00
2022-11-20T11:28:36.648Z,100.00
2022-11-20T11:31:05.049Z,100.00
2022-11-20T11:33:35.462Z,100.00
2022-11-20T11:36:18.940Z,100.00
2022-11-20T11:38:47.347Z,100.00
2022-11-20T11:41:21.290Z,100.00
2022-11-20T11:44:24.910Z,100.00
2022-11-20T11:46:57.354Z,100.00
2022-11-20T11:49:26.142Z,100.00
2022-11-20T11:52:11.398Z,100.00
2022-11-20T11:54:45.264Z,100.00
2022-11-20T11:57:25.904Z,100.00
2022-11-20T12:00:05.416Z,100.00
2022-11-20T12:02:41.835Z,100.00
2022-11-20T12:05:20.689Z,100.00
2022-11-20T12:07:57.497Z,100.00
2022-11-20T12:10:42.070Z,100.00
2022-11-20T12:13:33.090Z,100.00
2022-11-20T12:16:01.880Z,100.00
2022-11-20T12:18:31.845Z,100.00
2022-11-20T12:21:14.953Z,100.00
2022-11-20T12:24:13.681Z,100.00
2022-11-20T12:26:58.343Z,100.00
2022-11-20T12:29:43.596Z,100.00
2022-11-20T12:32:43.716Z,100.00
2022-11-20T12:35:35.447Z,100.00
2022-11-20T12:38:42.171Z,100.00
2022-11-20T12:41:38.690Z,100.00
2022-11-20T12:44:47.518Z,100.00
2022-11-20T12:47:26.266Z,100.00
2022-11-20T12:50:04.577Z,100.00
2022-11-20T12:52:48.033Z,100.00
2022-11-20T12:55:27.107Z,100.00
2022-11-20T12:58:07.721Z,100.00
2022-11-20T13:00:39.975Z,100.00
2022-11-20T13:03:48.533Z,100.00
2022-11-20T13:06:19.547Z,100.00
2022-11-20T13:08:55.093Z,100.00
2022-11-20T13:11:34.249Z,100.00
2022-11-20T13:14:28.774Z,100.00
2022-11-20T13:17:06.835Z,100.00
2022-11-20T13:19:35.954Z,100.00
2022-11-20T13:22:04.307Z,100.00
2022-11-20T13:24:34.458Z,100.00
2022-11-20T13:27:20.372Z,100.00
2022-11-20T13:30:16.336Z,100.00
2022-11-20T13:32:53.624Z,100.00
2022-11-20T13:35:34.837Z,100.00
2022-11-20T13:38:09.862Z,100.00
2022-11-20T13:40:41.094Z,100.00
2022-11-20T13:43:24.210Z,100.00
2022-11-20T13:46:06.580Z,100.00
2022-11-20T13:48:40.639Z,100.00
2022-11-20T13:51:36.346Z,100.00
2022-11-20T13:54:42.034Z,100.00
2022-11-20T13:57:37.564Z,100.00
2022-11-20T14:00:15.501Z,100.00
2022-11-20T14:02:46.278Z,100.00
2022-11-20T14:05:24.108Z,100.00
2022-11-20T14:07:54.683Z,100.00
2022-11-20T14:10:31.478Z,100.00
2022-11-20T14:13:00.861Z,100.00
2022-11-20T14:15:32.652Z,100.00
2022-11-20T14:18:14.051Z,100.00
2022-11-20T14:20:43.750Z,100.00
2022-11-20T14:23:13.201Z,100.00
2022-11-20T14:25:47.124Z,100.00
2022-11-20T14:28:27.579Z,100.00
2022-11-20T14:30:57.425Z,100.00
2022-11-20T14:33:29.143Z,100.00
2022-11-20T14:36:00.435Z,100.00
2022-11-20T14:38:30.927Z,100.00
2022-11-20T14:41:09.370Z,100.00
2022-11-20T14:43:38.877Z,100.00
2022-11-20T14:46:10.491Z,100.00
2022-11-20T14:48:47.606Z,100.00
2022-11-20T14:51:32.518Z,100.00
2022-11-20T14:54:12.508Z,100.00
2022-11-20T14:56:40.924Z,100.00
2022-11-20T14:59:10.699Z,100.00
2022-11-20T15:01:39.472Z,100.00
2022-11-20T15:04:13.177Z,100.00
2022-11-20T15:06:52.954Z,100.00
2022-11-20T15:09:21.347Z,100.00
2022-11-20T15:11:58.064Z,100.00
2022-11-20T15:14:28.526Z,100.00
2022-11-20T15:16:57.330Z,100.00
2022-11-20T15:19:28.796Z,100.00
2022-11-20T15:21:57.383Z,100.00
2022-11-20T15:24:26.135Z,100.00
2022-11-20T15:26:54.660Z,100.00
2022-11-20T15:29:25.376Z,100.00
2022-11-20T15:31:55.290Z,100.00
2022-11-20T15:34:23.938Z,100.00
2022-11-20T15:36:54.091Z,100.00
2022-11-20T15:39:23.014Z,100.00
2022-11-20T15:41:51.355Z,100.00
2022-11-20T15:44:19.728Z,100.00
2022-11-20T15:46:48.246Z,100.00
2022-11-20T15:49:19.854Z,100.00
2022-11-20T15:51:51.148Z,100.00
2022-11-20T15:54:23.227Z,100.00
2022-11-20T15:56:53.882Z,100.00
2022-11-20T15:59:22.523Z,100.00
2022-11-20T16:01:52.736Z,100.00
2022-11-20T16:04:21.381Z,100.00
2022-11-20T16:06:49.973Z,100.00
2022-11-20T16:09:18.276Z,100.00
2022-11-20T16:11:47.990Z,100.00
2022-11-20T16:14:42.668Z,100.00
2022-11-20T16:17:11.018Z,100.00
2022-11-20T16:19:39.533Z,100.00
2022-11-20T16:22:07.923Z,100.00
2022-11-20T16:24:36.284Z,100.00
2022-11-20T16:27:06.031Z,100.00
2022-11-20T16:29:34.366Z,100.00
2022-11-20T16:32:02.810Z,100.00
2022-11-20T16:34:31.300Z,100.00
2022-11-20T16:36:59.624Z,100.00
2022-11-20T16:39:28.080Z,100.00
2022-11-20T16:41:56.420Z,100.00
2022-11-20T16:44:26.518Z,100.00
2022-11-20T16:46:55.335Z,100.00
2022-11-20T16:49:24.889Z,100.00
2022-11-20T16:51:53.342Z,100.00
2022-11-20T16:54:21.735Z,100.00
2022-11-20T16:56:51.891Z,100.00
2022-11-20T16:59:20.518Z,100.00
2022-11-20T17:01:50.897Z,100.00
2022-11-20T17:04:19.397Z,100.00
2022-11-20T17:06:47.956Z,100.00
2022-11-20T17:09:16.353Z,100.00
2022-11-20T17:11:44.726Z,100.00
2022-11-20T17:14:13.454Z,100.00
2022-11-20T17:16:43.091Z,100.00
2022-11-20T17:19:13.097Z,100.00
2022-11-20T17:21:41.653Z,100.00
2022-11-20T17:24:12.419Z,100.00
2022-11-20T17:26:43.674Z,100.00
2022-11-20T17:29:14.876Z,100.00
2022-11-20T17:31:44.147Z,100.00
2022-11-20T17:34:15.720Z,100.00
2022-11-20T17:36:45.965Z,100.00
2022-11-20T17:39:16.007Z,100.00
2022-11-20T17:41:44.595Z,100.00
2022-11-20T17:44:13.933Z,100.00
2022-11-20T17:46:42.301Z,100.00
2022-11-20T17:49:10.745Z,100.00
2022-11-20T17:51:42.106Z,100.00
2022-11-20T17:54:12.250Z,100.00
2022-11-20T17:56:58.144Z,100.00
2022-11-20T17:59:26.516Z,100.00
2022-11-20T18:01:57.558Z,100.00
2022-11-20T18:04:28.283Z,100.00
2022-11-20T18:06:58.060Z,100.00
2022-11-20T18:09:26.545Z,100.00
2022-11-20T18:11:54.880Z,100.00
2022-11-20T18:14:34.505Z,100.00
2022-11-20T18:17:05.967Z,100.00
2022-11-20T18:19:41.145Z,100.00
2022-11-20T18:22:16.163Z,100.00
2022-11-20T18:24:45.788Z,100.00
2022-11-20T18:27:17.803Z,100.00
2022-11-20T18:29:51.782Z,100.00
2022-11-20T18:32:20.779Z,100.00
2022-11-20T18:34:49.223Z,100.00
2022-11-20T18:37:19.062Z,100.00
2022-11-20T18:39:47.495Z,100.00
2022-11-20T18:42:35.511Z,100.00
2022-11-20T18:45:05.224Z,100.00
2022-11-20T18:47:39.184Z,100.00
2022-11-20T18:50:10.490Z,100.00
2022-11-20T18:52:44.538Z,100.00
2022-11-20T18:55:13.521Z,100.00
2022-11-20T18:57:42.013Z,100.00
2022-11-20T19:00:12.632Z,100.00
2022-11-20T19:02:43.194Z,100.00
2022-11-20T19:05:12.337Z,100.00
2022-11-20T19:07:42.624Z,100.00
2022-11-20T19:10:11.823Z,100.00
2022-11-20T19:12:40.184Z,100.00
2022-11-20T19:15:09.322Z,100.00
2022-11-20T19:17:37.759Z,100.00
2022-11-20T19:20:07.760Z,100.00
2022-11-20T19:22:36.172Z,100.00
2022-11-20T19:25:07.233Z,100.00
2022-11-20T19:27:35.597Z,100.00
2022-11-20T19:30:04.021Z,100.00
2022-11-20T19:32:35.302Z,100.00
2022-11-20T19:35:03.986Z,100.00
2022-11-20T19:37:35.245Z,100.00
2022-11-20T19:40:05.435Z,100.00
2022-11-20T19:42:33.991Z,100.00
2022-11-20T19:45:02.387Z,100.00
2022-11-20T19:47:53.074Z,100.00
2022-11-20T19:50:19.396Z,100.00
2022-11-20T19:52:47.721Z,100.00
2022-11-20T19:55:17.694Z,100.00
2022-11-20T19:57:46.085Z,100.00
2022-11-20T20:00:20.818Z,100.00
2022-11-20T20:02:55.223Z,100.00
2022-11-20T20:05:23.981Z,100.00
2022-11-20T20:07:52.387Z,100.00
2022-11-20T20:10:22.221Z,100.00
2022-11-20T20:12:50.555Z,100.00
2022-11-20T20:15:18.987Z,100.00
2022-11-20T20:17:47.352Z,100.00
2022-11-20T20:20:16.152Z,100.00
2022-11-20T20:22:44.799Z,100.00
2022-11-20T20:25:13.344Z,100.00
2022-11-20T20:27:43.043Z,100.00
2022-11-20T20:30:12.800Z,100.00
2022-11-20T20:32:41.127Z,100.00
2022-11-20T20:35:10.623Z,100.00
2022-11-20T20:37:38.967Z,100.00
2022-11-20T20:40:14.773Z,100.00
2022-11-20T20:42:44.930Z,100.00
2022-11-20T20:45:13.343Z,100.00
2022-11-20T20:47:42.620Z,100.00
2022-11-20T20:50:13.292Z,100.00
2022-11-20T20:52:41.887Z,100.00
2022-11-20T20:55:11.526Z,100.00
2022-11-20T20:57:39.855Z,100.00
2022-11-20T21:00:11.362Z,100.00
2022-11-20T21:02:39.684Z,100.00
2022-11-20T21:05:08.870Z,100.00
2022-11-20T21:07:58.247Z,100.00
2022-11-20T21:10:26.628Z,100.00
2022-11-20T21:12:55.129Z,100.00
2022-11-20T21:15:24.849Z,100.00
2022-11-20T21:17:53.176Z,100.00
2022-11-20T21:20:39.146Z,100.00
2022-11-20T21:23:11.079Z,100.00
2022-11-20T21:25:40.851Z,100.00
2022-11-20T21:28:12.011Z,100.00
2022-11-20T21:30:44.043Z,100.00
2022-11-20T21:33:12.403Z,100.00
2022-11-20T21:35:41.446Z,100.00
2022-11-20T21:38:09.763Z,100.00
2022-11-20T21:40:38.145Z,100.00
2022-11-20T21:43:06.495Z,100.00
2022-11-20T21:45:34.882Z,100.00
2022-11-20T21:48:04.928Z,100.00
2022-11-20T21:50:35.386Z,100.00
2022-11-20T21:53:03.701Z,100.00
2022-11-20T21:55:32.032Z,100.00
2022-11-20T21:58:00.360Z,100.00
2022-11-20T22:00:28.961Z,100.00
2022-11-20T22:02:57.544Z,100.00
2022-11-20T22:05:27.579Z,100.00
2022-11-20T22:07:56.164Z,100.00
2022-11-20T22:10:24.802Z,100.00
2022-11-20T22:13:16.152Z,100.00
2022-11-20T22:15:59.933Z,100.00
2022-11-20T22:18:29.367Z,100.00
2022-11-20T22:21:03.859Z,100.00
2022-11-20T22:23:32.217Z,100.00
2022-11-20T22:26:04.828Z,100.00
2022-11-20T22:28:33.570Z,100.00
2022-11-20T22:31:02.869Z,100.00
2022-11-20T22:33:33.150Z,100.00
2022-11-20T22:36:03.578Z,100.00
2022-11-20T22:38:37.875Z,100.00
2022-11-20T22:41:10.111Z,100.00
2022-11-20T22:43:39.268Z,100.00
2022-11-20T22:46:09.853Z,100.00
2022-11-20T22:48:40.527Z,100.00
2022-11-20T22:51:12.926Z,100.00
2022-11-20T22:53:42.171Z,100.00
2022-11-20T22:56:12.549Z,100.00
2022-11-20T22:58:43.248Z,100.00
2022-11-20T23:01:15.232Z,100.00
2022-11-20T23:03:46.005Z,100.00
2022-11-20T23:06:18.559Z,100.00
2022-11-20T23:08:47.886Z,100.00
2022-11-20T23:11:18.841Z,100.00
2022-11-20T23:13:48.279Z,100.00
2022-11-20T23:16:19.957Z,100.00
2022-11-20T23:18:48.491Z,100.00
2022-11-20T23:21:19.982Z,100.00
2022-11-20T23:23:50.462Z,100.00
2022-11-20T23:26:21.331Z,100.00
2022-11-20T23:28:49.830Z,100.00
2022-11-20T23:31:18.397Z,100.00
2022-11-20T23:33:47.640Z,100.00
2022-11-20T23:36:17.710Z,100.00
2022-11-20T23:38:46.128Z,100.00
2022-11-20T23:41:15.244Z,100.00
2022-11-20T23:43:43.655Z,100.00
2022-11-20T23:46:16.172Z,100.00
2022-11-20T23:48:45.971Z,100.00
2022-11-20T23:51:15.029Z,100.00
2022-11-20T23:53:44.915Z,100.00
2022-11-20T23:56:15.297Z,100.00
2022-11-20T23:58:44.047Z,100.00
